createdAt,value
2023-03-14T00:05:59.490Z,5.60
2023-03-14T00:11:09.399Z,5.68
2023-03-14T00:16:14.974Z,6.03
2023-03-14T00:21:19.603Z,5.05
2023-03-14T00:26:25.324Z,5.32
2023-03-14T00:31:29.907Z,7.40
2023-03-14T00:36:34.327Z,5.75
2023-03-14T00:41:40.205Z,6.18
2023-03-14T00:46:44.691Z,5.85
2023-03-14T00:51:49.833Z,6.88
2023-03-14T00:56:55.542Z,6.13
2023-03-14T01:02:00.475Z,6.15
2023-03-14T01:07:06.261Z,5.05
2023-03-14T01:12:12.006Z,5.75
2023-03-14T01:17:16.267Z,6.40
2023-03-14T01:22:22.358Z,5.55
2023-03-14T01:27:28.228Z,5.63
2023-03-14T01:32:32.548Z,4.80
2023-03-14T01:37:37.395Z,4.93
2023-03-14T01:42:49.229Z,5.90
2023-03-14T01:47:53.594Z,4.38
2023-03-14T01:52:58.116Z,4.10
2023-03-14T01:58:06.508Z,5.28
2023-03-14T02:03:14.758Z,4.88
2023-03-14T02:08:22.665Z,3.83
2023-03-14T02:13:39.570Z,4.63
2023-03-14T02:19:19.127Z,4.38
2023-03-14T02:24:48.213Z,4.88
2023-03-14T02:29:57.164Z,4.30
2023-03-14T02:35:06.021Z,4.47
2023-03-14T02:40:11.529Z,4.10
2023-03-14T02:45:40.052Z,4.78
2023-03-14T02:50:46.171Z,4.28
2023-03-14T03:00:58.561Z,4.05
2023-03-14T03:06:03.616Z,3.38
2023-03-14T03:11:08.428Z,3.75
2023-03-14T03:16:16.265Z,3.70
2023-03-14T03:21:24.480Z,3.40
2023-03-14T03:26:28.824Z,4.05
2023-03-14T03:31:34.527Z,3.95
2023-03-14T03:41:42.953Z,3.47
2023-03-14T03:46:49.935Z,3.42
2023-03-14T03:51:55.953Z,3.50
2023-03-14T03:57:00.296Z,3.97
2023-03-14T04:02:07.902Z,3.27
2023-03-14T04:07:16.749Z,3.58
2023-03-14T04:12:24.928Z,3.60
2023-03-14T04:17:44.569Z,3.72
2023-03-14T04:22:54.417Z,3.80
2023-03-14T04:28:02.687Z,3.75
2023-03-14T04:33:12.388Z,3.90
2023-03-14T04:38:25.040Z,3.13
2023-03-14T04:43:33.678Z,3.40
2023-03-14T04:48:48.698Z,3.65
2023-03-14T04:53:59.017Z,3.67
2023-03-14T04:59:05.059Z,4.13
2023-03-14T05:04:15.498Z,3.85
2023-03-14T05:09:31.925Z,3.92
2023-03-14T05:15:07.738Z,3.63
2023-03-14T05:20:31.134Z,3.85
2023-03-14T05:26:01.168Z,3.70
2023-03-14T05:31:24.583Z,3.70
2023-03-14T05:37:07.304Z,3.63
2023-03-14T05:42:36.141Z,3.92
2023-03-14T05:48:03.832Z,3.50
2023-03-14T05:53:25.831Z,3.75
2023-03-14T05:58:51.824Z,4.10
2023-03-14T06:04:11.456Z,3.35
2023-03-14T06:09:17.605Z,8.68
2023-03-14T06:14:23.250Z,6.07
2023-03-14T06:19:32.393Z,4.10
2023-03-14T06:24:41.745Z,4.65
2023-03-14T06:29:51.131Z,3.55
2023-03-14T06:35:02.647Z,3.60
2023-03-14T06:40:19.556Z,3.60
2023-03-14T06:45:43.426Z,3.95
2023-03-14T06:50:52.176Z,4.38
2023-03-14T06:56:03.384Z,3.67
2023-03-14T07:01:28.093Z,4.40
2023-03-14T07:06:41.396Z,4.90
2023-03-14T07:11:51.821Z,3.97
2023-03-14T07:16:59.766Z,4.50
2023-03-14T07:22:07.982Z,3.90
2023-03-14T07:27:17.398Z,3.97
2023-03-14T07:32:23.423Z,3.88
2023-03-14T07:37:30.477Z,4.43
2023-03-14T07:42:39.785Z,3.60
2023-03-14T07:48:00.838Z,3.78
2023-03-14T07:53:06.249Z,3.70
2023-03-14T07:58:23.426Z,3.63
2023-03-14T08:03:31.320Z,3.85
2023-03-14T08:08:42.347Z,3.38
2023-03-14T08:13:53.281Z,3.00
2023-03-14T08:19:00.139Z,4.28
2023-03-14T08:24:05.786Z,3.65
2023-03-14T08:37:51.554Z,4.63
2023-03-14T08:43:06.071Z,3.45
2023-03-14T08:48:16.729Z,4.25
2023-03-14T08:53:25.288Z,4.22
2023-03-14T08:58:33.751Z,3.72
2023-03-14T09:03:42.920Z,4.00
2023-03-14T09:08:51.611Z,3.58
2023-03-14T09:14:03.308Z,3.97
2023-03-14T09:19:09.244Z,3.55
2023-03-14T09:24:14.316Z,4.25
2023-03-14T09:29:22.617Z,3.00
2023-03-14T09:34:30.877Z,3.33
2023-03-14T09:39:39.759Z,3.95
2023-03-14T09:44:57.114Z,4.15
2023-03-14T09:50:56.301Z,3.30
2023-03-14T09:56:37.240Z,3.75
2023-03-14T10:02:03.789Z,3.17
2023-03-14T10:43:26.122Z,4.30
2023-03-14T10:54:22.462Z,4.18
2023-03-14T10:59:37.888Z,4.40
2023-03-14T11:05:05.550Z,3.80
2023-03-14T11:10:32.555Z,3.80
2023-03-14T11:15:45.660Z,4.68
2023-03-14T11:20:56.192Z,4.78
2023-03-14T11:26:20.940Z,3.85
2023-03-14T11:31:32.987Z,5.50
2023-03-14T11:36:43.135Z,4.10
2023-03-14T11:41:54.868Z,3.30
2023-03-14T11:47:11.743Z,4.38
2023-03-14T11:52:26.174Z,6.18
2023-03-14T11:57:32.846Z,4.88
2023-03-14T12:02:54.885Z,5.53
2023-03-14T12:08:36.573Z,4.13
2023-03-14T12:13:52.766Z,3.42
2023-03-14T12:24:23.774Z,3.90
2023-03-14T12:29:33.476Z,4.05
2023-03-14T12:34:45.197Z,4.43
2023-03-14T12:40:06.993Z,3.72
2023-03-14T12:45:29.594Z,3.88
2023-03-14T12:50:43.991Z,3.88
2023-03-14T12:56:05.297Z,4.07
2023-03-14T13:01:19.628Z,7.55
2023-03-14T13:06:55.093Z,7.35
2023-03-14T13:12:05.856Z,5.77
2023-03-14T13:17:36.158Z,5.20
2023-03-14T13:22:40.327Z,5.38
2023-03-14T13:27:45.339Z,4.60
2023-03-14T13:32:55.298Z,5.43
2023-03-14T13:38:12.306Z,5.35
2023-03-14T13:43:20.498Z,5.20
2023-03-14T13:48:31.660Z,5.22
2023-03-14T13:53:46.854Z,5.47
2023-03-14T13:58:52.304Z,5.07
2023-03-14T14:04:01.030Z,5.28
2023-03-14T14:09:14.554Z,5.53
2023-03-14T14:14:24.481Z,4.82
2023-03-14T14:19:34.322Z,7.80
2023-03-14T14:24:41.343Z,6.00
2023-03-14T14:29:50.268Z,4.50
2023-03-14T14:35:04.990Z,13.25
2023-03-14T14:40:12.713Z,5.50
2023-03-14T14:45:25.334Z,12.02
2023-03-14T14:50:33.930Z,6.25
2023-03-14T14:55:43.243Z,6.70
2023-03-14T15:00:56.811Z,6.13
2023-03-14T15:06:04.517Z,6.15
2023-03-14T15:11:18.841Z,5.40
2023-03-14T15:16:33.074Z,5.53
2023-03-14T15:21:38.899Z,5.30
2023-03-14T15:36:55.607Z,5.07
2023-03-14T15:42:06.084Z,6.30
2023-03-14T15:47:13.835Z,6.32
2023-03-14T15:52:19.617Z,6.43
2023-03-14T15:57:24.668Z,6.90
2023-03-14T16:02:29.974Z,5.80
2023-03-14T16:07:35.868Z,5.87
2023-03-14T16:17:45.819Z,6.30
2023-03-14T16:22:51.883Z,5.85
2023-03-14T16:28:10.245Z,5.68
2023-03-14T16:33:15.908Z,6.63
2023-03-14T16:38:21.894Z,6.55
2023-03-14T16:43:26.238Z,7.38
2023-03-14T16:48:31.205Z,6.72
2023-03-14T16:53:37.384Z,7.03
2023-03-14T16:58:42.120Z,8.32
2023-03-14T17:03:48.211Z,9.90
2023-03-14T17:08:55.947Z,9.52
2023-03-14T17:14:00.564Z,9.20
2023-03-14T17:19:04.968Z,9.30
2023-03-14T17:24:10.972Z,8.55
2023-03-14T17:29:15.250Z,10.18
2023-03-14T17:34:20.135Z,9.75
2023-03-14T17:39:50.706Z,11.55
2023-03-14T17:44:58.053Z,11.85
2023-03-14T17:50:05.445Z,10.95
2023-03-14T17:55:12.138Z,12.02
2023-03-14T18:00:17.960Z,19.35
2023-03-14T18:05:22.348Z,16.25
2023-03-14T18:10:28.099Z,24.60
2023-03-14T18:15:33.941Z,33.33
2023-03-14T18:25:43.927Z,15.43
2023-03-14T18:30:52.594Z,11.82
2023-03-14T18:35:57.217Z,12.48
2023-03-14T18:41:07.315Z,15.52
2023-03-14T18:46:15.816Z,15.27
2023-03-14T18:51:20.515Z,17.95
2023-03-14T18:56:26.985Z,20.08
2023-03-14T19:01:31.680Z,20.58
2023-03-14T19:06:36.482Z,15.52
2023-03-14T19:11:43.697Z,19.13
2023-03-14T19:16:48.860Z,21.92
2023-03-14T19:21:54.006Z,22.33
2023-03-14T19:26:59.695Z,24.43
2023-03-14T19:32:04.132Z,23.67
2023-03-14T19:37:09.711Z,19.13
2023-03-14T19:47:19.735Z,21.70
2023-03-14T19:52:24.031Z,20.90
2023-03-14T19:57:29.908Z,18.38
2023-03-14T20:02:34.589Z,26.20
2023-03-14T20:07:39.654Z,25.80
2023-03-14T20:12:45.923Z,45.72
2023-03-14T20:17:51.330Z,22.73
2023-03-14T20:22:55.680Z,19.50
2023-03-14T20:28:01.994Z,11.27
2023-03-14T20:33:06.340Z,13.60
2023-03-14T20:38:11.014Z,13.25
2023-03-14T20:43:17.081Z,10.65
2023-03-14T20:48:23.689Z,7.30
2023-03-14T20:53:27.946Z,6.20
2023-03-14T20:58:33.910Z,7.65
2023-03-14T21:03:38.183Z,6.55
2023-03-14T21:08:42.822Z,6.05
2023-03-14T21:13:48.560Z,7.43
2023-03-14T21:18:52.844Z,7.25
2023-03-14T21:23:57.270Z,6.75
2023-03-14T21:29:03.310Z,23.30
2023-03-14T21:34:08.528Z,11.73
2023-03-14T21:39:14.426Z,9.90
2023-03-14T21:44:21.795Z,24.35
2023-03-14T21:49:26.004Z,11.68
2023-03-14T21:54:33.918Z,7.20
2023-03-14T21:59:39.972Z,7.72
2023-03-14T22:04:44.101Z,7.78
2023-03-14T22:09:48.511Z,9.10
2023-03-14T22:14:54.026Z,7.15
2023-03-14T22:19:58.337Z,6.85
2023-03-14T22:25:02.690Z,9.80
2023-03-14T22:30:22.189Z,9.68
2023-03-14T22:35:26.512Z,12.70
2023-03-14T22:40:30.714Z,11.40
2023-03-14T22:45:36.615Z,10.77
2023-03-14T22:55:45.740Z,10.35
2023-03-14T23:00:51.554Z,9.75
2023-03-14T23:05:56.969Z,9.48
2023-03-14T23:11:02.598Z,9.20
2023-03-14T23:16:08.501Z,9.63
2023-03-14T23:26:22.241Z,12.63
2023-03-14T23:31:28.450Z,13.77
2023-03-14T23:36:37.331Z,12.50
2023-03-14T23:41:41.601Z,12.07
2023-03-14T23:46:47.349Z,19.70
2023-03-14T23:51:51.494Z,18.08
2023-03-14T23:56:56.360Z,14.93
